Airport View

Enter AWOS ICAO identifier for current METAR.

ex. KFNL

K57C 080520Z AUTO 00000KT 10SM CLR 18/16 A3012 RMK AO2 T01750158

8 Aug 2020 05:24

Frequency: 118.125

Phone: 262-642-1845

Other Area AWOS: KBUU - KUES - KMKE - KENW

TAF AMD KUES 080307Z 0803/0824 15005KT P6SM BKN250 FM080600 16005KT P6SM SCT100 BKN200 FM081500 19012G21KT P6SM SCT040 BKN150 FM082000 22012G21KT P6SM BKN050 BKN150